Time;durP1;ratioP1;P1;durP2;ratioP2;P2;SDS_P1;SDS_P2;PMS_P1;PMS_P2;Temp;Humidity;BMP_temperature;BMP_pressure;BME280_temperature;BME280_humidity;BME280_pressure;Samples;Min_cycle;Max_cycle;Signal;HPM_P1;HPM_P2
2022/05/12 00:02:06;;;;;;;0.40;0.20;;;15.10;99.90;;;;;;5080051;28;20492;-92
2022/05/12 00:04:34;;;;;;;0.40;0.20;;;15.10;99.90;;;;;;5075468;28;20532;-92
2022/05/12 00:07:03;;;;;;;0.40;0.20;;;15.00;99.90;;;;;;5079764;28;21017;-91
2022/05/12 00:09:30;;;;;;;0.30;0.20;;;14.90;99.90;;;;;;5085797;28;20525;-92
2022/05/12 00:11:57;;;;;;;0.33;0.20;;;14.80;99.90;;;;;;5074434;28;20451;-92
2022/05/12 00:14:25;;;;;;;0.30;0.20;;;14.70;99.90;;;;;;5106902;28;21095;-92
2022/05/12 00:16:56;;;;;;;0.40;0.20;;;14.80;99.90;;;;;;5103326;28;20516;-92
2022/05/12 00:19:24;;;;;;;0.40;0.20;;;14.80;99.90;;;;;;5090865;28;21040;-92
2022/05/12 00:21:51;;;;;;;0.30;0.20;;;14.80;99.90;;;;;;5084081;28;20545;-91
2022/05/12 00:24:19;;;;;;;0.30;0.20;;;14.90;99.90;;;;;;5083983;28;21066;-92
2022/05/12 00:26:46;;;;;;;0.30;0.20;;;14.70;99.90;;;;;;5079049;28;20461;-92
2022/05/12 00:29:14;;;;;;;0.30;0.20;;;14.60;99.90;;;;;;5085097;28;20562;-92
2022/05/12 00:31:43;;;;;;;0.30;0.20;;;14.50;99.90;;;;;;5078461;28;20490;-92
2022/05/12 00:34:12;;;;;;;0.30;0.20;;;14.50;99.90;;;;;;5070257;28;21134;-91
2022/05/12 00:36:39;;;;;;;0.30;0.20;;;14.50;99.90;;;;;;5076934;28;20461;-92
2022/05/12 00:39:06;;;;;;;0.30;0.20;;;14.50;99.90;;;;;;5079190;28;20552;-92
2022/05/12 00:41:35;;;;;;;0.30;0.20;;;14.40;99.90;;;;;;5073660;28;21022;-92
2022/05/12 00:44:05;;;;;;;0.30;0.20;;;14.30;99.90;;;;;;5072146;28;20465;-92
2022/05/12 00:46:36;;;;;;;0.30;0.20;;;14.30;99.90;;;;;;5077491;28;20861;-91
2022/05/12 00:49:06;;;;;;;0.30;0.20;;;14.30;99.90;;;;;;5077787;28;21087;-91
2022/05/12 00:51:37;;;;;;;0.30;0.20;;;14.30;99.90;;;;;;5077146;28;20960;-92
2022/05/12 00:54:08;;;;;;;0.30;0.20;;;14.50;99.90;;;;;;5075659;28;20640;-91
2022/05/12 00:56:37;;;;;;;0.30;0.20;;;14.60;99.90;;;;;;5073916;28;20532;-92
2022/05/12 00:59:10;;;;;;;0.40;0.20;;;14.60;99.90;;;;;;5079344;28;20521;-91
2022/05/12 01:01:39;;;;;;;0.30;0.20;;;14.50;99.90;;;;;;5070536;28;20811;-92
2022/05/12 01:04:07;;;;;;;0.33;0.20;;;14.50;99.90;;;;;;5078648;28;20476;-92
2022/05/12 01:06:34;;;;;;;0.30;0.20;;;14.50;99.90;;;;;;5086636;28;20512;-92
2022/05/12 01:09:01;;;;;;;0.30;0.20;;;14.40;99.90;;;;;;5081386;28;20868;-91
2022/05/12 01:11:28;;;;;;;0.30;0.20;;;14.40;99.90;;;;;;5082507;28;20514;-92
2022/05/12 01:14:01;;;;;;;0.30;0.20;;;14.40;99.90;;;;;;5077438;28;20468;-91
2022/05/12 01:16:42;;;;;;;0.40;0.20;;;14.40;99.90;;;;;;5080405;28;20460;-92
2022/05/12 01:19:13;;;;;;;0.30;0.20;;;14.40;99.90;;;;;;5081962;28;20467;-91
2022/05/12 01:21:41;;;;;;;0.30;0.20;;;14.40;99.90;;;;;;5074865;28;20480;-91
2022/05/12 01:24:09;;;;;;;0.30;0.20;;;14.40;99.90;;;;;;5073518;28;20634;-91
2022/05/12 01:26:37;;;;;;;0.30;0.20;;;14.30;99.90;;;;;;5075733;28;20514;-91
2022/05/12 01:29:05;;;;;;;0.30;0.20;;;14.30;99.90;;;;;;5076972;28;20555;-91
2022/05/12 01:31:32;;;;;;;0.30;0.20;;;14.20;99.90;;;;;;5072280;28;20468;-92
2022/05/12 01:33:59;;;;;;;0.30;0.20;;;14.20;99.90;;;;;;5074538;28;20467;-91
2022/05/12 01:36:27;;;;;;;0.30;0.20;;;14.40;99.90;;;;;;5074754;28;20859;-91
2022/05/12 01:38:54;;;;;;;0.30;0.20;;;14.40;99.90;;;;;;5078265;28;20462;-92
2022/05/12 01:41:22;;;;;;;0.30;0.20;;;14.40;99.90;;;;;;5075020;28;20489;-92
2022/05/12 01:43:49;;;;;;;0.30;0.20;;;14.40;99.90;;;;;;5073922;28;20466;-92
2022/05/12 01:46:16;;;;;;;0.30;0.20;;;14.40;99.90;;;;;;5067837;28;20546;-92
2022/05/12 01:48:44;;;;;;;0.30;0.20;;;14.30;99.90;;;;;;5083437;28;20471;-92
2022/05/12 01:51:12;;;;;;;0.30;0.20;;;14.30;99.90;;;;;;5071854;28;20963;-91
2022/05/12 01:53:39;;;;;;;0.30;0.20;;;14.30;99.90;;;;;;5085199;28;20950;-91
2022/05/12 01:56:07;;;;;;;0.30;0.20;;;14.30;99.90;;;;;;5081296;28;20467;-92
2022/05/12 01:58:35;;;;;;;0.30;0.20;;;14.20;99.90;;;;;;5083374;28;20517;-92
2022/05/12 02:01:02;;;;;;;0.30;0.20;;;14.20;99.90;;;;;;5074111;28;21023;-92
2022/05/12 02:03:30;;;;;;;0.30;0.20;;;14.20;99.90;;;;;;5076680;28;20516;-91
2022/05/12 02:05:57;;;;;;;0.30;0.20;;;14.20;99.90;;;;;;5068042;28;20468;-92
2022/05/12 02:08:24;;;;;;;0.30;0.20;;;14.20;99.90;;;;;;5067020;28;20495;-92
2022/05/12 02:10:52;;;;;;;0.30;0.20;;;14.30;99.90;;;;;;5077719;28;20590;-91
2022/05/12 02:13:21;;;;;;;0.30;0.20;;;14.30;99.90;;;;;;5075643;28;20496;-92
2022/05/12 02:15:50;;;;;;;0.30;0.20;;;14.20;99.90;;;;;;5081906;28;20464;-92
2022/05/12 02:18:20;;;;;;;0.30;0.20;;;14.20;99.90;;;;;;5071214;28;20475;-92
2022/05/12 02:20:47;;;;;;;0.30;0.20;;;14.10;99.90;;;;;;5074404;28;21042;-92
2022/05/12 02:23:14;;;;;;;0.30;0.20;;;14.10;99.90;;;;;;5082384;28;20561;-91
2022/05/12 02:25:41;;;;;;;0.30;0.20;;;14.00;99.90;;;;;;5079936;28;20461;-92
2022/05/12 02:28:09;;;;;;;0.30;0.20;;;14.00;99.90;;;;;;5072865;28;20479;-91
2022/05/12 02:30:36;;;;;;;0.30;0.20;;;13.90;99.90;;;;;;5074587;28;20550;-92
2022/05/12 02:33:04;;;;;;;0.30;0.20;;;13.80;99.90;;;;;;5076184;28;20460;-92
2022/05/12 02:35:31;;;;;;;0.30;0.20;;;13.80;99.90;;;;;;5077795;28;20883;-92
2022/05/12 02:37:59;;;;;;;0.30;0.20;;;13.90;99.90;;;;;;5071734;28;20467;-92
2022/05/12 02:40:28;;;;;;;0.30;0.20;;;13.80;99.90;;;;;;5072522;28;20527;-92
2022/05/12 02:42:56;;;;;;;0.30;0.20;;;13.80;99.90;;;;;;5070211;28;20523;-92
2022/05/12 02:45:23;;;;;;;0.30;0.20;;;13.80;99.90;;;;;;5077214;28;20855;-92
2022/05/12 02:47:50;;;;;;;0.30;0.20;;;13.80;99.90;;;;;;5071084;28;20459;-91
2022/05/12 02:50:19;;;;;;;0.30;0.20;;;13.70;99.90;;;;;;5079009;28;20564;-92
2022/05/12 02:52:46;;;;;;;0.30;0.20;;;13.70;99.90;;;;;;5081298;28;20462;-92
2022/05/12 02:55:14;;;;;;;0.30;0.20;;;13.70;99.90;;;;;;5075799;28;20523;-92
2022/05/12 02:57:41;;;;;;;0.30;0.20;;;13.60;99.90;;;;;;5076652;28;20486;-91
2022/05/12 03:00:12;;;;;;;0.40;0.20;;;13.50;99.90;;;;;;5075375;28;20913;-92
2022/05/12 03:02:39;;;;;;;0.30;0.20;;;13.50;99.90;;;;;;5075085;28;20500;-92
2022/05/12 03:05:07;;;;;;;0.30;0.20;;;13.50;99.90;;;;;;5075707;28;20475;-91
2022/05/12 03:07:36;;;;;;;0.30;0.20;;;13.50;99.90;;;;;;5069839;28;20495;-91
2022/05/12 03:10:03;;;;;;;0.30;0.20;;;13.60;99.90;;;;;;5078498;28;20456;-91
2022/05/12 03:12:32;;;;;;;0.30;0.20;;;13.60;99.90;;;;;;5071469;28;20919;-92
2022/05/12 03:14:59;;;;;;;0.30;0.20;;;13.70;99.90;;;;;;5066291;28;20461;-91
2022/05/12 03:17:26;;;;;;;0.30;0.20;;;13.70;99.90;;;;;;5065963;28;20472;-91
2022/05/12 03:19:53;;;;;;;0.30;0.20;;;13.70;99.90;;;;;;5063991;28;20492;-92
2022/05/12 03:22:20;;;;;;;0.30;0.20;;;13.70;99.90;;;;;;5061907;28;20495;-91
2022/05/12 03:24:49;;;;;;;0.30;0.20;;;13.80;99.90;;;;;;5061906;28;20519;-91
2022/05/12 03:27:16;;;;;;;0.30;0.20;;;13.80;99.90;;;;;;5065803;28;20496;-91
2022/05/12 03:29:43;;;;;;;0.30;0.20;;;13.90;99.90;;;;;;5065824;28;20472;-91
2022/05/12 03:32:12;;;;;;;0.30;0.20;;;13.90;99.90;;;;;;5059092;28;20472;-91
2022/05/12 03:34:40;;;;;;;0.30;0.20;;;14.00;99.90;;;;;;5065642;28;20463;-91
2022/05/12 03:37:08;;;;;;;0.30;0.20;;;14.00;99.90;;;;;;5063610;28;20927;-91
2022/05/12 03:39:36;;;;;;;0.30;0.20;;;14.10;99.90;;;;;;5063804;28;20562;-91
2022/05/12 03:42:06;;;;;;;0.30;0.20;;;14.10;99.90;;;;;;5063481;28;20556;-92
2022/05/12 03:44:49;;;;;;;0.30;0.20;;;14.10;99.90;;;;;;5065112;28;20467;-91
2022/05/12 03:47:19;;;;;;;0.30;0.20;;;14.10;99.90;;;;;;5090814;28;20922;-92
2022/05/12 03:49:47;;;;;;;0.30;0.20;;;14.20;99.90;;;;;;5088078;28;20456;-92
2022/05/12 03:52:14;;;;;;;0.30;0.20;;;14.20;99.90;;;;;;5068900;28;20463;-92
2022/05/12 03:54:41;;;;;;;0.30;0.20;;;14.20;99.90;;;;;;5067531;28;20846;-92
2022/05/12 03:57:10;;;;;;;0.30;0.20;;;14.30;99.90;;;;;;5067433;28;21237;-92
2022/05/12 03:59:39;;;;;;;0.30;0.20;;;14.50;99.90;;;;;;5064986;28;20479;-91
2022/05/12 04:02:06;;;;;;;0.30;0.20;;;14.50;99.90;;;;;;5064122;28;21061;-91
2022/05/12 04:04:33;;;;;;;0.30;0.20;;;14.60;99.90;;;;;;5061923;28;20512;-91
2022/05/12 04:07:00;;;;;;;0.30;0.20;;;14.60;99.90;;;;;;5057366;28;20567;-91
2022/05/12 04:09:28;;;;;;;0.30;0.20;;;14.60;99.90;;;;;;5060617;28;20525;-91
2022/05/12 04:11:55;;;;;;;0.30;0.20;;;14.60;99.90;;;;;;5060993;28;20536;-91
2022/05/12 04:14:24;;;;;;;0.30;0.20;;;14.70;99.90;;;;;;5061211;28;20500;-91
2022/05/12 04:16:51;;;;;;;0.30;0.20;;;14.70;99.90;;;;;;5061893;28;20500;-91
2022/05/12 04:19:18;;;;;;;0.30;0.20;;;14.80;99.90;;;;;;5058127;28;21079;-91
2022/05/12 04:21:45;;;;;;;0.30;0.20;;;14.90;99.90;;;;;;5059388;28;20541;-92
2022/05/12 04:24:12;;;;;;;0.30;0.20;;;14.90;99.90;;;;;;5059483;28;21245;-91
2022/05/12 04:26:41;;;;;;;0.30;0.20;;;14.90;99.90;;;;;;5058729;28;21019;-92
2022/05/12 04:29:08;;;;;;;0.30;0.20;;;15.00;99.90;;;;;;5066602;28;20459;-91
2022/05/12 04:31:36;;;;;;;0.30;0.20;;;15.00;99.90;;;;;;5068183;28;20469;-91
2022/05/12 04:36:49;;;;;;;0.40;0.20;;;15.20;99.90;;;;;;5062859;28;20499;-91
2022/05/12 04:39:17;;;;;;;0.30;0.20;;;15.10;99.90;;;;;;5063446;28;20938;-92
2022/05/12 04:41:44;;;;;;;0.30;0.20;;;15.10;99.90;;;;;;5064060;28;20491;-91
2022/05/12 04:44:12;;;;;;;0.30;0.20;;;15.10;99.90;;;;;;5061105;28;20469;-92
2022/05/12 04:46:41;;;;;;;0.30;0.20;;;15.20;99.90;;;;;;5061429;28;20609;-92
2022/05/12 04:49:10;;;;;;;0.30;0.20;;;15.20;99.90;;;;;;5066546;28;20503;-91
2022/05/12 04:51:38;;;;;;;0.40;0.20;;;15.30;99.90;;;;;;5066773;28;20547;-91
2022/05/12 04:54:09;;;;;;;0.30;0.20;;;15.30;99.90;;;;;;5062679;28;20474;-91
2022/05/12 04:56:36;;;;;;;0.30;0.20;;;15.40;99.90;;;;;;5067457;28;20459;-91
2022/05/12 04:59:03;;;;;;;0.30;0.20;;;15.50;99.90;;;;;;5057932;28;20462;-91
2022/05/12 05:01:31;;;;;;;0.30;0.20;;;15.60;99.90;;;;;;5065316;28;20796;-91
2022/05/12 05:04:00;;;;;;;0.30;0.20;;;15.60;99.90;;;;;;5062417;28;20556;-91
2022/05/12 05:06:27;;;;;;;0.30;0.20;;;15.70;99.90;;;;;;5072676;28;20804;-92
2022/05/12 05:08:54;;;;;;;0.40;0.20;;;15.90;99.90;;;;;;5072677;28;20778;-92
2022/05/12 05:11:21;;;;;;;0.30;0.20;;;16.10;99.90;;;;;;5057656;28;20467;-91
2022/05/12 05:13:48;;;;;;;0.30;0.20;;;16.20;99.90;;;;;;5058695;28;20573;-91
2022/05/12 05:16:15;;;;;;;0.30;0.20;;;16.40;99.90;;;;;;5063287;28;20846;-92
2022/05/12 05:18:43;;;;;;;0.30;0.20;;;16.50;99.90;;;;;;5062746;28;20871;-90
2022/05/12 05:21:11;;;;;;;0.30;0.20;;;16.40;99.90;;;;;;5064192;28;20503;-91
2022/05/12 05:23:39;;;;;;;0.30;0.20;;;16.70;99.90;;;;;;5062291;28;20978;-91
2022/05/12 05:26:07;;;;;;;0.30;0.20;;;16.90;99.90;;;;;;5072319;28;20467;-91
2022/05/12 05:28:34;;;;;;;0.30;0.20;;;17.10;99.90;;;;;;5070910;28;20623;-91
2022/05/12 05:31:02;;;;;;;0.30;0.20;;;17.10;99.90;;;;;;5064135;28;20505;-91
2022/05/12 05:33:29;;;;;;;0.30;0.20;;;17.40;99.90;;;;;;5074563;28;20476;-90
2022/05/12 05:35:57;;;;;;;0.30;0.20;;;17.70;99.90;;;;;;5068535;28;20515;-91
2022/05/12 05:38:26;;;;;;;0.40;0.20;;;18.10;99.90;;;;;;5072126;28;20542;-91
2022/05/12 05:40:53;;;;;;;0.30;0.20;;;18.30;99.90;;;;;;5081551;28;20467;-91
2022/05/12 05:43:22;;;;;;;0.40;0.20;;;18.00;99.90;;;;;;5076328;28;20519;-91
2022/05/12 05:45:50;;;;;;;0.30;0.20;;;18.40;99.40;;;;;;5073754;28;20467;-91
2022/05/12 05:48:17;;;;;;;0.40;0.20;;;18.40;98.60;;;;;;5079886;28;20467;-92
2022/05/12 05:53:35;;;;;;;0.40;0.20;;;18.30;99.60;;;;;;5066239;28;20458;-91
2022/05/12 05:56:05;;;;;;;0.40;0.20;;;18.50;99.50;;;;;;5076675;28;20513;-91
2022/05/12 05:58:32;;;;;;;0.40;0.20;;;18.90;99.40;;;;;;5066574;28;20552;-92
2022/05/12 06:01:00;;;;;;;0.40;0.20;;;19.10;98.80;;;;;;5083004;28;20519;-93
2022/05/12 06:03:27;;;;;;;0.40;0.20;;;19.10;98.40;;;;;;5076613;28;20570;-93
2022/05/12 06:05:56;;;;;;;0.40;0.20;;;19.20;99.70;;;;;;5074128;28;20463;-93
2022/05/12 06:08:23;;;;;;;0.40;0.20;;;19.30;99.90;;;;;;5077246;28;20527;-93
2022/05/12 06:10:52;;;;;;;0.40;0.20;;;19.40;99.70;;;;;;5075687;28;20988;-93
2022/05/12 06:13:19;;;;;;;0.40;0.20;;;19.60;99.90;;;;;;5071877;28;20471;-93
2022/05/12 06:15:46;;;;;;;0.40;0.20;;;19.80;99.00;;;;;;5076842;28;20691;-92
2022/05/12 06:18:15;;;;;;;0.40;0.20;;;20.00;98.70;;;;;;5071344;28;20858;-91
2022/05/12 06:20:43;;;;;;;0.40;0.20;;;20.00;97.80;;;;;;5076504;28;20468;-91
2022/05/12 06:23:11;;;;;;;0.40;0.20;;;20.00;96.60;;;;;;5072951;28;20585;-91
2022/05/12 06:25:39;;;;;;;0.30;0.20;;;20.10;96.40;;;;;;5071245;28;20551;-92
2022/05/12 06:28:08;;;;;;;0.40;0.20;;;20.20;96.60;;;;;;5067408;28;20471;-92
2022/05/12 06:30:35;;;;;;;0.40;0.20;;;20.30;96.70;;;;;;5081440;28;20562;-92
2022/05/12 06:33:03;;;;;;;0.40;0.20;;;20.20;96.20;;;;;;5066480;28;20457;-92
2022/05/12 06:35:30;;;;;;;0.40;0.20;;;20.20;96.20;;;;;;5069019;28;20460;-92
2022/05/12 06:37:57;;;;;;;0.40;0.20;;;20.20;95.70;;;;;;5078997;28;20472;-93
2022/05/12 06:40:25;;;;;;;0.43;0.30;;;20.20;95.00;;;;;;5081328;28;20776;-92
2022/05/12 06:42:53;;;;;;;0.40;0.20;;;20.40;94.70;;;;;;5071731;28;20491;-92
2022/05/12 06:45:22;;;;;;;0.40;0.20;;;20.60;95.90;;;;;;5074226;28;20527;-92
2022/05/12 06:47:52;;;;;;;0.40;0.20;;;20.50;95.30;;;;;;5075015;28;20627;-92
2022/05/12 06:50:23;;;;;;;0.40;0.20;;;20.50;96.20;;;;;;5065086;28;20463;-93
2022/05/12 06:52:50;;;;;;;0.40;0.20;;;20.70;96.20;;;;;;5069391;28;20462;-92
2022/05/12 06:55:19;;;;;;;0.40;0.20;;;20.60;96.20;;;;;;5068016;28;20520;-92
2022/05/12 06:57:47;;;;;;;0.40;0.20;;;20.60;96.70;;;;;;5069361;28;20460;-93
2022/05/12 07:00:16;;;;;;;0.40;0.20;;;20.50;96.50;;;;;;5067952;28;20468;-93
2022/05/12 07:02:45;;;;;;;0.40;0.20;;;20.50;96.40;;;;;;5072854;28;20507;-93
2022/05/12 07:05:13;;;;;;;0.40;0.20;;;20.70;96.30;;;;;;5071754;28;20478;-92
2022/05/12 07:07:41;;;;;;;0.40;0.20;;;20.90;96.40;;;;;;5071190;28;21109;-93
2022/05/12 07:10:11;;;;;;;0.40;0.20;;;20.80;96.30;;;;;;5068804;28;21262;-91
2022/05/12 07:12:38;;;;;;;0.40;0.20;;;20.90;96.80;;;;;;5079587;28;20466;-92
2022/05/12 07:15:06;;;;;;;0.40;0.20;;;21.10;96.30;;;;;;5104368;28;20462;-92
2022/05/12 07:17:37;;;;;;;0.40;0.20;;;21.30;95.50;;;;;;5093902;28;20539;-92
2022/05/12 07:28:16;;;;;;;0.40;0.20;;;21.80;93.40;;;;;;5070803;28;20573;-93
2022/05/12 07:31:01;;;;;;;0.80;0.80;;;21.90;93.70;;;;;;5063422;28;20531;-93
2022/05/12 07:33:29;;;;;;;0.40;0.20;;;22.40;93.70;;;;;;5067363;28;20463;-93
2022/05/12 07:35:58;;;;;;;0.40;0.20;;;22.60;93.60;;;;;;5066766;28;20504;-93
2022/05/12 07:38:25;;;;;;;0.40;0.20;;;22.70;93.60;;;;;;5074538;28;20520;-93
2022/05/12 07:40:53;;;;;;;0.40;0.20;;;22.90;93.00;;;;;;5073779;28;20459;-93
2022/05/12 07:43:20;;;;;;;0.40;0.20;;;23.20;91.80;;;;;;5078574;28;21182;-93
2022/05/12 07:45:47;;;;;;;0.40;0.20;;;23.10;90.10;;;;;;5070848;28;20500;-93
2022/05/12 07:48:15;;;;;;;0.40;0.20;;;23.00;90.50;;;;;;5064311;28;20472;-93
2022/05/12 07:50:42;;;;;;;0.40;0.20;;;22.80;85.50;;;;;;5066301;28;20526;-93
2022/05/12 07:53:10;;;;;;;0.40;0.20;;;22.60;88.90;;;;;;5063765;28;20912;-93
2022/05/12 07:55:37;;;;;;;0.40;0.20;;;22.60;89.80;;;;;;5069631;28;20468;-93
2022/05/12 07:58:05;;;;;;;0.40;0.20;;;22.80;90.80;;;;;;5066122;28;21189;-93
2022/05/12 08:00:33;;;;;;;0.40;0.20;;;22.70;90.30;;;;;;5068132;28;20455;-93
2022/05/12 08:03:03;;;;;;;0.40;0.20;;;22.80;89.90;;;;;;5073604;28;20549;-93
2022/05/12 08:05:30;;;;;;;0.40;0.20;;;22.70;90.10;;;;;;5070115;28;20918;-93
2022/05/12 08:07:57;;;;;;;0.40;0.20;;;22.60;90.90;;;;;;5074980;28;20478;-92
2022/05/12 08:10:26;;;;;;;0.40;0.20;;;22.70;90.40;;;;;;5075359;28;20578;-92
2022/05/12 08:12:53;;;;;;;0.40;0.20;;;22.80;90.90;;;;;;5075556;28;20452;-93
2022/05/12 08:15:21;;;;;;;0.40;0.20;;;22.80;89.30;;;;;;5068824;28;20467;-93
2022/05/12 08:17:49;;;;;;;0.40;0.20;;;22.80;89.80;;;;;;5083833;28;21106;-93
2022/05/12 08:20:16;;;;;;;0.40;0.20;;;22.90;90.30;;;;;;5074952;28;20462;-93
2022/05/12 08:22:43;;;;;;;0.40;0.20;;;23.00;91.20;;;;;;5072894;28;20495;-93
2022/05/12 08:25:10;;;;;;;0.40;0.20;;;23.20;90.00;;;;;;5076154;28;20470;-93
2022/05/12 08:27:39;;;;;;;0.40;0.20;;;23.50;88.40;;;;;;5075163;28;20556;-93
2022/05/12 08:30:10;;;;;;;0.40;0.20;;;23.90;86.50;;;;;;5070818;28;20801;-93
2022/05/12 08:32:37;;;;;;;0.40;0.20;;;24.40;85.20;;;;;;5077782;28;20466;-93
2022/05/12 08:35:05;;;;;;;0.40;0.20;;;24.60;83.40;;;;;;5074880;28;20954;-93
2022/05/12 08:37:32;;;;;;;0.40;0.20;;;24.60;80.60;;;;;;5073945;28;20502;-93
2022/05/12 08:39:59;;;;;;;0.40;0.20;;;24.70;78.80;;;;;;5076519;28;20541;-93
2022/05/12 08:42:32;;;;;;;0.40;0.20;;;24.80;79.80;;;;;;5075307;28;20832;-93
2022/05/12 08:45:04;;;;;;;0.40;0.20;;;24.80;77.20;;;;;;5080452;28;20486;-92
2022/05/12 08:47:34;;;;;;;0.40;0.20;;;25.20;79.30;;;;;;5071411;28;21009;-93
2022/05/12 08:50:04;;;;;;;0.40;0.20;;;25.40;79.00;;;;;;5074724;28;20801;-93
2022/05/12 08:52:38;;;;;;;0.40;0.20;;;25.40;74.80;;;;;;5073467;28;20467;-93
2022/05/12 08:55:15;;;;;;;0.40;0.20;;;25.50;76.80;;;;;;5075512;28;20482;-93
2022/05/12 08:57:51;;;;;;;0.40;0.20;;;25.10;74.70;;;;;;5074652;28;20469;-93
2022/05/12 09:00:20;;;;;;;0.40;0.20;;;24.70;78.10;;;;;;5075282;28;20467;-93
2022/05/12 09:02:58;;;;;;;0.40;0.20;;;24.30;76.40;;;;;;5078898;28;20467;-93
2022/05/12 09:05:29;;;;;;;0.40;0.20;;;24.30;79.20;;;;;;5074944;28;21105;-93
2022/05/12 09:08:05;;;;;;;0.40;0.20;;;24.10;78.00;;;;;;5077250;28;20523;-93
2022/05/12 09:10:43;;;;;;;0.40;0.20;;;24.20;80.80;;;;;;5074203;28;20463;-92
2022/05/12 09:13:14;;;;;;;0.40;0.20;;;24.00;81.10;;;;;;5074027;28;20458;-93
2022/05/12 09:15:51;;;;;;;0.40;0.20;;;24.30;79.80;;;;;;5078547;28;20492;-92
2022/05/12 09:18:21;;;;;;;0.40;0.20;;;24.40;78.50;;;;;;5072997;28;20466;-93
2022/05/12 09:20:48;;;;;;;0.40;0.20;;;24.50;77.90;;;;;;5069291;28;20781;-93
2022/05/12 09:23:15;;;;;;;0.40;0.20;;;24.50;75.10;;;;;;5065120;28;20527;-93
2022/05/12 09:25:45;;;;;;;0.40;0.20;;;24.20;75.60;;;;;;5066963;28;20548;-92
2022/05/12 09:28:25;;;;;;;0.40;0.20;;;24.00;74.30;;;;;;5068231;28;20464;-92
2022/05/12 09:30:55;;;;;;;0.40;0.20;;;24.00;74.80;;;;;;5074255;28;20451;-92
2022/05/12 09:33:29;;;;;;;0.40;0.20;;;24.10;73.80;;;;;;5063130;28;20464;-92
2022/05/12 09:35:57;;;;;;;0.40;0.20;;;24.30;74.10;;;;;;5070076;28;20463;-92
2022/05/12 09:38:26;;;;;;;0.40;0.20;;;24.20;72.70;;;;;;5064727;28;21056;-92
2022/05/12 09:40:53;;;;;;;0.40;0.20;;;24.40;75.90;;;;;;5067059;28;20525;-92
2022/05/12 09:43:26;;;;;;;0.40;0.20;;;24.90;74.50;;;;;;5066465;28;21020;-93
2022/05/12 09:46:07;;;;;;;0.40;0.20;;;25.10;69.90;;;;;;5066504;28;20443;-92
2022/05/12 09:48:41;;;;;;;0.40;0.20;;;25.00;68.50;;;;;;5068921;28;20451;-92
2022/05/12 09:51:32;;;;;;;0.40;0.20;;;24.70;68.80;;;;;;5068969;28;20473;-93
2022/05/12 09:54:23;;;;;;;0.40;0.20;;;24.40;69.10;;;;;;5083891;28;20684;-93
2022/05/12 09:57:00;;;;;;;0.40;0.20;;;24.20;68.40;;;;;;5065830;28;20457;-92
2022/05/12 09:59:30;;;;;;;0.40;0.20;;;24.10;70.10;;;;;;5065962;28;20455;-92
2022/05/12 10:02:00;;;;;;;0.40;0.20;;;23.90;69.30;;;;;;5067752;28;20509;-92
2022/05/12 10:10:16;;;;;;;0.40;0.20;;;24.20;69.50;;;;;;5069519;28;20503;-93
2022/05/12 10:12:56;;;;;;;0.40;0.20;;;24.40;69.30;;;;;;5070128;28;20447;-92
2022/05/12 10:15:28;;;;;;;0.40;0.20;;;24.90;69.60;;;;;;5065059;28;20460;-92
2022/05/12 10:17:59;;;;;;;0.40;0.20;;;25.00;69.40;;;;;;5069676;28;20444;-92
2022/05/12 10:20:28;;;;;;;0.40;0.20;;;24.60;66.20;;;;;;5066578;28;21004;-92
2022/05/12 10:23:03;;;;;;;0.40;0.20;;;24.80;67.90;;;;;;5067984;28;20532;-93
2022/05/12 10:25:58;;;;;;;0.40;0.20;;;25.00;68.50;;;;;;5065705;28;20486;-93
2022/05/12 10:28:32;;;;;;;0.40;0.20;;;25.00;68.10;;;;;;5062928;28;20444;-92
2022/05/12 10:31:09;;;;;;;0.40;0.20;;;25.20;69.70;;;;;;5073032;28;20502;-92
2022/05/12 10:33:55;;;;;;;0.40;0.20;;;25.10;65.70;;;;;;5086724;28;20523;-93
2022/05/12 10:36:36;;;;;;;0.40;0.20;;;25.30;68.40;;;;;;5077981;28;20463;-92
2022/05/12 10:39:13;;;;;;;0.40;0.20;;;25.50;68.20;;;;;;5069792;28;20460;-93
2022/05/12 10:41:53;;;;;;;0.40;0.20;;;25.90;65.00;;;;;;5069981;28;20545;-92
2022/05/12 10:44:40;;;;;;;0.40;0.20;;;26.30;68.70;;;;;;5062534;28;20521;-92
2022/05/12 10:47:15;;;;;;;0.40;0.20;;;26.70;64.00;;;;;;5070459;28;20468;-92
2022/05/12 10:49:51;;;;;;;0.40;0.20;;;26.60;64.50;;;;;;5070389;28;20459;-92
2022/05/12 10:52:34;;;;;;;0.40;0.20;;;26.00;61.20;;;;;;5063385;28;20519;-93
2022/05/12 10:55:10;;;;;;;0.40;0.20;;;25.40;65.50;;;;;;5076400;28;20496;-92
2022/05/12 10:57:46;;;;;;;0.40;0.20;;;25.40;64.90;;;;;;5069976;28;20912;-92
2022/05/12 11:00:35;;;;;;;0.40;0.20;;;25.70;71.00;;;;;;5068432;28;20474;-94
2022/05/12 11:03:08;;;;;;;0.40;0.20;;;25.60;66.30;;;;;;5073107;28;20471;-92
2022/05/12 11:05:40;;;;;;;0.40;0.20;;;25.30;63.60;;;;;;5066140;28;20877;-92
2022/05/12 11:08:13;;;;;;;0.40;0.20;;;25.60;68.90;;;;;;5066898;28;20483;-92
2022/05/12 11:10:45;;;;;;;0.40;0.20;;;25.60;64.80;;;;;;5066856;28;20519;-92
2022/05/12 11:13:18;;;;;;;0.40;0.20;;;25.90;67.30;;;;;;5061980;28;20968;-92
2022/05/12 11:15:56;;;;;;;0.40;0.20;;;25.90;63.10;;;;;;5068885;28;20459;-92
2022/05/12 11:18:29;;;;;;;0.40;0.20;;;25.80;70.30;;;;;;5075857;28;20524;-93
2022/05/12 11:21:04;;;;;;;0.40;0.20;;;26.00;67.60;;;;;;5080837;28;20505;-92
2022/05/12 11:23:46;;;;;;;0.40;0.20;;;26.20;65.80;;;;;;5068190;28;20490;-93
2022/05/12 11:26:22;;;;;;;0.40;0.20;;;26.30;67.80;;;;;;5065032;28;20468;-92
2022/05/12 11:31:45;;;;;;;0.40;0.20;;;26.10;68.00;;;;;;5068060;28;20461;-91
2022/05/12 11:34:17;;;;;;;0.40;0.20;;;26.10;69.30;;;;;;5065840;28;20452;-91
2022/05/12 11:36:48;;;;;;;0.40;0.20;;;26.20;69.20;;;;;;5066679;28;20524;-90
2022/05/12 11:39:29;;;;;;;0.40;0.20;;;26.20;65.70;;;;;;5066312;28;20528;-90
2022/05/12 11:42:15;;;;;;;0.40;0.20;;;26.30;65.60;;;;;;5069703;28;20463;-91
2022/05/12 11:44:58;;;;;;;0.40;0.20;;;26.30;63.80;;;;;;5064784;28;20487;-91
2022/05/12 11:47:59;;;;;;;0.40;0.20;;;26.60;66.80;;;;;;5064798;28;20996;-90
2022/05/12 11:50:56;;;;;;;0.40;0.20;;;26.60;64.10;;;;;;5064446;28;20463;-91
2022/05/12 11:53:27;;;;;;;0.40;0.20;;;27.00;68.50;;;;;;5063328;28;20919;-90
2022/05/12 11:56:02;;;;;;;0.40;0.20;;;27.20;65.60;;;;;;5068497;28;20487;-91
2022/05/12 11:58:48;;;;;;;0.40;0.20;;;27.00;64.30;;;;;;5062394;28;20469;-90
2022/05/12 12:01:49;;;;;;;0.40;0.20;;;27.10;65.10;;;;;;5063221;28;20520;-91
2022/05/12 12:04:16;;;;;;;0.40;0.20;;;26.80;65.30;;;;;;5065203;28;20499;-91
2022/05/12 12:06:47;;;;;;;0.40;0.20;;;26.60;62.80;;;;;;5065422;28;20556;-91
2022/05/12 12:09:53;;;;;;;0.40;0.20;;;26.50;63.60;;;;;;5081229;28;20523;-90
2022/05/12 12:12:58;;;;;;;0.40;0.20;;;26.60;59.30;;;;;;5063799;28;20447;-91
2022/05/12 12:16:02;;;;;;;0.40;0.30;;;26.80;65.40;;;;;;5077095;28;20957;-91
2022/05/12 12:19:14;;;;;;;0.40;0.20;;;27.30;64.50;;;;;;5066936;28;20467;-91
2022/05/12 12:22:00;;;;;;;0.40;0.20;;;27.60;61.60;;;;;;5072277;28;20493;-91
2022/05/12 12:25:15;;;;;;;0.40;0.20;;;27.60;60.00;;;;;;5072697;28;21079;-91
2022/05/12 12:28:23;;;;;;;0.40;0.20;;;27.10;62.40;;;;;;5063279;28;20843;-91
2022/05/12 12:31:10;;;;;;;0.40;0.20;;;27.00;63.40;;;;;;5076800;28;20446;-91
2022/05/12 12:33:57;;;;;;;0.40;0.20;;;27.00;60.30;;;;;;5077907;28;20490;-91
2022/05/12 12:37:06;;;;;;;0.40;0.20;;;27.00;62.90;;;;;;5063018;28;20475;-91
2022/05/12 12:39:50;;;;;;;0.40;0.20;;;27.10;66.60;;;;;;5061605;28;20459;-91
2022/05/12 12:42:33;;;;;;;0.40;0.20;;;27.20;62.10;;;;;;5065661;28;20470;-92
2022/05/12 12:45:07;;;;;;;0.40;0.20;;;27.30;59.80;;;;;;5066499;28;20482;-91
2022/05/12 12:47:47;;;;;;;0.40;0.20;;;27.40;59.40;;;;;;5077428;28;20512;-91
2022/05/12 12:50:41;;;;;;;0.40;0.20;;;27.40;63.40;;;;;;5068449;28;20458;-91
2022/05/12 12:53:13;;;;;;;0.40;0.20;;;27.10;60.60;;;;;;5065599;28;20517;-89
2022/05/12 12:58:32;;;;;;;0.40;0.20;;;26.80;63.00;;;;;;5047100;28;20508;-91
2022/05/12 13:01:05;;;;;;;0.40;0.20;;;26.60;63.00;;;;;;5072787;28;20460;-91
2022/05/12 13:03:34;;;;;;;0.40;0.20;;;26.70;65.20;;;;;;5066592;28;21454;-91
2022/05/12 13:06:10;;;;;;;0.40;0.20;;;26.50;61.50;;;;;;5071974;28;20519;-91
2022/05/12 13:08:37;;;;;;;0.40;0.20;;;26.50;61.90;;;;;;5075679;28;20458;-91
2022/05/12 13:11:07;;;;;;;0.40;0.20;;;26.30;60.20;;;;;;5086068;28;21063;-92
2022/05/12 13:13:47;;;;;;;0.40;0.20;;;26.30;62.80;;;;;;5076822;28;20463;-91
2022/05/12 13:16:18;;;;;;;0.40;0.20;;;26.30;63.10;;;;;;5073767;28;20474;-91
2022/05/12 13:18:47;;;;;;;0.40;0.20;;;26.70;61.00;;;;;;5069371;28;20502;-91
2022/05/12 13:21:21;;;;;;;0.40;0.20;;;27.00;61.80;;;;;;5067298;28;20524;-91
2022/05/12 13:24:00;;;;;;;0.40;0.20;;;26.90;63.20;;;;;;5067738;28;20516;-92
2022/05/12 13:26:27;;;;;;;0.40;0.20;;;26.70;61.20;;;;;;5065988;28;20504;-91
2022/05/12 13:28:54;;;;;;;0.40;0.20;;;26.70;63.00;;;;;;5066468;28;20520;-91
2022/05/12 13:31:28;;;;;;;0.40;0.20;;;26.90;63.40;;;;;;5064446;28;20452;-91
2022/05/12 13:34:01;;;;;;;0.40;0.20;;;27.00;62.70;;;;;;5066323;28;20502;-91
2022/05/12 13:36:32;;;;;;;0.40;0.20;;;27.10;60.50;;;;;;5067670;28;20466;-91